createdAt,value
2019-04-28T00:01:01.142Z,9.76
2019-04-28T00:03:31.921Z,9.75
2019-04-28T00:06:01.973Z,9.73
2019-04-28T00:08:31.997Z,9.73
2019-04-28T00:11:02.281Z,9.74
2019-04-28T00:13:32.343Z,9.80
2019-04-28T00:16:02.339Z,9.82
2019-04-28T00:18:32.474Z,9.77
2019-04-28T00:21:20.882Z,9.70
2019-04-28T00:24:03.171Z,9.65
2019-04-28T00:26:44.497Z,9.64
2019-04-28T00:29:14.426Z,9.64
2019-04-28T00:31:44.365Z,9.63
2019-04-28T00:34:14.359Z,9.61
2019-04-28T00:36:46.039Z,9.56
2019-04-28T00:39:16.175Z,9.55
2019-04-28T00:41:46.137Z,9.50
2019-04-28T00:44:16.775Z,9.43
2019-04-28T00:46:46.722Z,9.43
2019-04-28T00:49:19.173Z,9.44
2019-04-28T00:51:50.895Z,9.46
2019-04-28T00:54:21.812Z,9.45
2019-04-28T00:56:52.028Z,9.47
2019-04-28T00:59:21.900Z,9.42
2019-04-28T01:01:57.675Z,9.41
2019-04-28T01:04:28.065Z,9.38
2019-04-28T01:06:57.925Z,9.31
2019-04-28T01:09:27.891Z,9.26
2019-04-28T01:11:57.965Z,9.25
2019-04-28T01:14:27.985Z,9.20
2019-04-28T01:17:04.152Z,9.17
2019-04-28T01:19:36.947Z,9.17
2019-04-28T01:22:14.256Z,9.11
2019-04-28T01:24:44.179Z,9.09
2019-04-28T01:27:50.489Z,9.07
2019-04-28T01:30:40.572Z,9.08
2019-04-28T01:33:16.950Z,9.08
2019-04-28T01:35:47.057Z,9.06
2019-04-28T01:38:17.001Z,9.08
2019-04-28T01:40:47.071Z,9.04
2019-04-28T01:43:17.203Z,9.03
2019-04-28T01:45:47.202Z,9.04
2019-04-28T01:48:17.436Z,9.04
2019-04-28T01:50:47.334Z,9.06
2019-04-28T01:53:17.305Z,9.07
2019-04-28T01:55:47.197Z,9.08
2019-04-28T01:58:17.008Z,9.09
2019-04-28T02:00:48.165Z,9.10
2019-04-28T02:03:21.545Z,9.14
2019-04-28T02:05:52.754Z,9.18
2019-04-28T02:08:23.702Z,9.13
2019-04-28T02:10:53.950Z,9.13
2019-04-28T02:13:24.088Z,9.19
2019-04-28T02:15:53.987Z,9.27
2019-04-28T02:18:24.027Z,9.33
2019-04-28T02:21:01.303Z,9.34
2019-04-28T02:23:32.498Z,9.39
2019-04-28T02:26:02.309Z,9.37
2019-04-28T02:28:32.091Z,9.40
2019-04-28T02:31:02.488Z,9.40
2019-04-28T02:33:32.437Z,9.43
2019-04-28T02:36:02.243Z,9.40
2019-04-28T02:42:01.617Z,9.42
2019-04-28T02:44:34.650Z,9.41
2019-04-28T02:47:03.532Z,9.42
2019-04-28T02:49:50.421Z,9.42
2019-04-28T02:52:41.231Z,9.44
2019-04-28T02:55:11.331Z,9.47
2019-04-28T02:57:41.260Z,9.48
2019-04-28T03:00:11.409Z,9.50
2019-04-28T03:02:41.787Z,9.49
2019-04-28T03:05:12.526Z,9.48
2019-04-28T03:07:42.550Z,9.49
2019-04-28T03:10:12.567Z,9.49
2019-04-28T03:12:42.416Z,9.49
2019-04-28T03:15:12.979Z,9.49
2019-04-28T03:17:42.979Z,9.50
2019-04-28T03:20:13.013Z,9.51
2019-04-28T03:22:42.783Z,9.52
2019-04-28T03:25:20.470Z,9.53
2019-04-28T03:28:01.426Z,9.52
2019-04-28T03:30:55.622Z,9.52
2019-04-28T03:33:26.657Z,9.52
2019-04-28T03:35:57.775Z,9.49
2019-04-28T03:38:27.522Z,9.49
2019-04-28T03:40:57.332Z,9.50
2019-04-28T03:43:27.176Z,9.49
2019-04-28T03:46:03.592Z,9.51
2019-04-28T03:48:34.044Z,9.51
2019-04-28T03:51:04.834Z,9.53
2019-04-28T03:53:34.911Z,9.52
2019-04-28T03:56:04.766Z,9.52
2019-04-28T03:58:34.538Z,9.51
2019-04-28T04:01:04.633Z,9.49
2019-04-28T04:03:34.433Z,9.52
2019-04-28T04:06:04.289Z,9.50
2019-04-28T04:08:34.450Z,9.51
2019-04-28T04:11:13.195Z,9.44
2019-04-28T04:13:47.899Z,9.48
2019-04-28T04:16:26.984Z,9.47
2019-04-28T04:19:00.513Z,9.48
2019-04-28T04:21:30.978Z,9.53
2019-04-28T04:24:01.453Z,9.55
2019-04-28T04:26:33.556Z,9.56
2019-04-28T04:29:02.899Z,9.53
2019-04-28T04:31:32.738Z,9.51
2019-04-28T04:34:03.324Z,9.50
2019-04-28T04:36:33.579Z,9.43
2019-04-28T04:39:06.298Z,9.55
2019-04-28T04:41:36.278Z,9.58
2019-04-28T04:44:06.224Z,9.62
2019-04-28T04:46:37.008Z,9.66
2019-04-28T04:49:06.890Z,9.66
2019-04-28T04:51:36.889Z,9.66
2019-04-28T04:54:06.784Z,9.66
2019-04-28T04:56:36.695Z,9.60
2019-04-28T04:59:06.913Z,9.59
2019-04-28T05:01:55.279Z,9.60
2019-04-28T05:04:35.038Z,9.60
2019-04-28T05:07:06.154Z,9.62
2019-04-28T05:09:36.101Z,9.65
2019-04-28T05:12:05.968Z,9.67
2019-04-28T05:14:35.769Z,9.66
2019-04-28T05:17:05.734Z,9.67
2019-04-28T05:19:35.703Z,9.65
2019-04-28T05:22:06.315Z,9.67
2019-04-28T05:24:59.991Z,9.65
2019-04-28T05:27:32.561Z,9.67
2019-04-28T05:30:05.093Z,9.70
2019-04-28T05:32:43.131Z,9.70
2019-04-28T05:35:10.257Z,9.68
2019-04-28T05:37:40.519Z,9.73
2019-04-28T05:40:10.741Z,9.79
2019-04-28T05:42:43.087Z,9.82
2019-04-28T05:45:13.019Z,9.87
2019-04-28T05:47:43.260Z,9.72
2019-04-28T05:50:19.744Z,9.95
2019-04-28T05:53:08.520Z,9.98
2019-04-28T05:55:45.965Z,10.02
2019-04-28T05:58:20.906Z,10.10
2019-04-28T06:01:12.744Z,10.15
2019-04-28T06:03:43.229Z,10.12
2019-04-28T06:06:13.084Z,10.13
2019-04-28T06:09:20.268Z,10.13
2019-04-28T06:11:49.953Z,10.16
2019-04-28T06:14:20.374Z,10.22
2019-04-28T06:16:50.723Z,10.17
2019-04-28T06:19:20.776Z,10.16
2019-04-28T06:21:50.720Z,10.20
2019-04-28T06:24:20.557Z,10.29
2019-04-28T06:26:50.574Z,10.41
2019-04-28T06:29:20.623Z,10.52
2019-04-28T06:31:51.631Z,10.62
2019-04-28T06:34:21.463Z,10.70
2019-04-28T06:36:51.610Z,10.83
2019-04-28T06:39:21.625Z,10.91
2019-04-28T06:41:52.026Z,11.03
2019-04-28T06:44:22.013Z,11.11
2019-04-28T06:46:53.210Z,11.18
2019-04-28T06:49:23.133Z,11.10
2019-04-28T06:51:53.029Z,11.14
2019-04-28T06:54:23.102Z,11.21
2019-04-28T06:56:53.153Z,11.37
2019-04-28T06:59:23.163Z,11.39
2019-04-28T07:01:53.290Z,11.40
2019-04-28T07:04:23.137Z,11.45
2019-04-28T07:06:53.108Z,11.41
2019-04-28T07:09:23.338Z,11.44
2019-04-28T07:11:53.640Z,11.57
2019-04-28T07:14:23.431Z,11.55
2019-04-28T07:16:53.489Z,11.59
2019-04-28T07:19:24.255Z,11.51
2019-04-28T07:21:59.944Z,11.44
2019-04-28T07:24:29.799Z,11.41
2019-04-28T07:27:00.089Z,11.58
2019-04-28T07:29:29.979Z,11.79
2019-04-28T07:32:00.132Z,11.85
2019-04-28T07:34:30.831Z,11.88
2019-04-28T07:37:00.751Z,11.92
2019-04-28T07:39:30.809Z,12.01
2019-04-28T07:42:01.795Z,12.02
2019-04-28T07:50:50.366Z,12.04
2019-04-28T07:53:32.318Z,12.11
2019-04-28T07:56:03.308Z,12.22
2019-04-28T07:58:33.163Z,12.12
2019-04-28T08:01:04.788Z,12.14
2019-04-28T08:11:56.884Z,13.35
2019-04-28T08:14:27.028Z,13.76
2019-04-28T08:17:00.327Z,13.86
2019-04-28T08:19:31.368Z,13.80
2019-04-28T08:22:04.090Z,13.76
2019-04-28T08:24:39.667Z,13.79
2019-04-28T08:27:10.086Z,13.67
2019-04-28T08:29:40.708Z,13.59
2019-04-28T08:32:26.214Z,13.64
2019-04-28T08:34:56.544Z,13.69
2019-04-28T08:37:29.691Z,13.53
2019-04-28T08:39:59.972Z,13.46
2019-04-28T08:42:29.841Z,13.33
2019-04-28T08:45:00.415Z,13.35
2019-04-28T08:47:30.362Z,13.45
2019-04-28T08:50:00.196Z,13.48
2019-04-28T08:52:30.606Z,13.52
2019-04-28T08:55:00.761Z,13.47
2019-04-28T08:57:30.789Z,13.58
2019-04-28T09:00:00.897Z,13.75
2019-04-28T09:02:30.850Z,13.86
2019-04-28T09:05:00.966Z,13.96
2019-04-28T09:07:31.073Z,14.00
2019-04-28T09:10:01.288Z,13.81
2019-04-28T09:12:32.200Z,13.65
2019-04-28T09:15:02.094Z,13.53
2019-04-28T09:17:33.801Z,13.56
2019-04-28T09:20:04.000Z,13.56
2019-04-28T09:22:33.836Z,13.31
2019-04-28T09:25:03.757Z,13.38
2019-04-28T09:27:33.888Z,13.53
2019-04-28T09:30:04.070Z,13.66
2019-04-28T09:32:34.415Z,13.62
2019-04-28T09:35:05.089Z,13.57
2019-04-28T09:37:35.069Z,13.58
2019-04-28T09:40:10.824Z,13.63
2019-04-28T09:43:13.024Z,14.02
2019-04-28T09:45:51.386Z,14.36
2019-04-28T09:48:21.190Z,14.56
2019-04-28T09:50:51.396Z,14.74
2019-04-28T09:53:21.327Z,14.63
2019-04-28T09:55:51.275Z,14.43
2019-04-28T09:58:21.063Z,14.18
2019-04-28T10:00:50.967Z,13.89
2019-04-28T10:03:21.178Z,13.32
2019-04-28T10:05:51.233Z,12.77
2019-04-28T10:08:21.030Z,12.29
2019-04-28T10:10:51.070Z,11.90
2019-04-28T10:13:20.992Z,11.52
2019-04-28T10:15:52.042Z,11.19
2019-04-28T10:18:22.263Z,10.94
2019-04-28T10:20:53.842Z,10.82
2019-04-28T10:23:23.891Z,10.74
2019-04-28T10:25:53.851Z,10.68
2019-04-28T10:28:24.167Z,10.58
2019-04-28T10:33:21.857Z,10.74
2019-04-28T10:35:52.107Z,10.79
2019-04-28T10:38:22.014Z,10.89
2019-04-28T10:41:20.079Z,10.97
2019-04-28T10:43:50.236Z,11.14
2019-04-28T10:46:20.989Z,11.36
2019-04-28T10:48:51.110Z,11.58
2019-04-28T10:51:21.296Z,11.78
2019-04-28T10:53:51.808Z,11.76
2019-04-28T10:56:25.164Z,11.92
2019-04-28T10:58:56.566Z,12.06
2019-04-28T11:01:26.552Z,12.28
2019-04-28T11:03:59.426Z,12.49
2019-04-28T11:06:30.800Z,12.56
2019-04-28T11:09:30.814Z,12.75
2019-04-28T11:12:01.232Z,13.00
2019-04-28T11:14:37.841Z,13.23
2019-04-28T11:17:09.388Z,13.44
2019-04-28T11:19:39.574Z,13.65
2019-04-28T11:22:09.903Z,13.91
2019-04-28T11:24:41.133Z,14.14
2019-04-28T11:27:11.588Z,14.39
2019-04-28T11:29:41.522Z,14.63
2019-04-28T11:32:11.615Z,15.03
2019-04-28T11:34:48.586Z,15.30
2019-04-28T11:37:18.396Z,15.62
2019-04-28T11:39:48.516Z,15.80
2019-04-28T11:42:18.428Z,16.05
2019-04-28T11:44:48.366Z,16.25
2019-04-28T11:47:20.272Z,16.16
2019-04-28T11:49:50.593Z,15.97
2019-04-28T11:52:20.596Z,15.98
2019-04-28T11:54:50.806Z,15.95
2019-04-28T11:57:20.888Z,15.76
2019-04-28T11:59:53.937Z,15.31
2019-04-28T12:02:23.172Z,14.91
2019-04-28T12:04:55.148Z,14.61
2019-04-28T12:07:25.561Z,14.42
2019-04-28T12:10:14.472Z,14.62
2019-04-28T12:13:09.435Z,14.85
2019-04-28T12:15:58.496Z,14.65
2019-04-28T12:18:49.962Z,14.93
2019-04-28T12:21:20.036Z,15.11
2019-04-28T12:23:49.986Z,15.32
2019-04-28T12:26:20.045Z,15.55
2019-04-28T12:28:50.292Z,15.68
2019-04-28T12:31:20.670Z,15.81
2019-04-28T12:33:50.779Z,15.79
2019-04-28T12:36:21.015Z,15.79
2019-04-28T12:38:50.872Z,16.03
2019-04-28T12:41:21.054Z,16.16
2019-04-28T12:43:52.486Z,16.19
2019-04-28T12:46:22.316Z,16.29
2019-04-28T12:48:55.871Z,16.51
2019-04-28T12:51:25.916Z,16.37
2019-04-28T12:54:00.206Z,16.23
2019-04-28T12:56:30.356Z,16.03
2019-04-28T12:59:06.363Z,16.44
2019-04-28T13:01:43.160Z,16.55
2019-04-28T13:04:28.039Z,16.74
2019-04-28T13:07:08.268Z,16.30
2019-04-28T13:09:38.226Z,16.47
2019-04-28T13:12:08.351Z,16.74
2019-04-28T13:14:42.114Z,17.00
2019-04-28T13:17:12.045Z,17.01
2019-04-28T13:19:41.901Z,16.99
2019-04-28T13:22:11.802Z,16.91
2019-04-28T13:24:41.873Z,16.61
2019-04-28T13:27:14.506Z,16.44
2019-04-28T13:29:44.433Z,16.32
2019-04-28T13:32:14.537Z,16.11
2019-04-28T13:34:46.099Z,16.10
2019-04-28T13:37:16.226Z,16.51
2019-04-28T13:39:56.476Z,16.78
2019-04-28T13:42:26.497Z,16.72
2019-04-28T13:45:01.239Z,16.72
2019-04-28T13:47:32.082Z,16.62
2019-04-28T13:50:09.720Z,16.56
2019-04-28T13:52:39.959Z,16.70
2019-04-28T13:55:27.057Z,16.53
2019-04-28T13:57:58.574Z,16.37
2019-04-28T14:00:39.395Z,16.24
2019-04-28T14:03:46.636Z,16.22
2019-04-28T14:06:27.625Z,16.11
2019-04-28T14:08:48.822Z,15.93
2019-04-28T14:11:18.635Z,15.91
2019-04-28T14:13:48.431Z,16.00
2019-04-28T14:16:18.617Z,16.05
2019-04-28T14:18:48.506Z,16.23
2019-04-28T14:21:19.216Z,16.26
2019-04-28T14:23:49.091Z,15.91
2019-04-28T14:26:19.036Z,16.11
2019-04-28T14:28:49.282Z,16.10
2019-04-28T14:31:19.134Z,16.14
2019-04-28T14:33:48.989Z,15.94
2019-04-28T14:36:19.671Z,15.77
2019-04-28T14:38:49.837Z,15.76
2019-04-28T14:41:19.932Z,15.76
2019-04-28T14:43:49.773Z,15.62
2019-04-28T14:46:19.739Z,15.26
2019-04-28T14:48:49.735Z,14.71
2019-04-28T14:51:20.231Z,14.60
2019-04-28T14:53:50.141Z,14.42
2019-04-28T14:56:20.417Z,14.16
2019-04-28T14:58:50.548Z,13.96
2019-04-28T15:01:38.993Z,13.81
2019-04-28T15:04:15.663Z,13.78
2019-04-28T15:06:55.705Z,13.78
2019-04-28T15:09:41.205Z,13.86
2019-04-28T15:12:11.663Z,13.98
2019-04-28T15:14:41.995Z,13.87
2019-04-28T15:17:12.167Z,13.75
2019-04-28T15:19:42.750Z,13.61
2019-04-28T15:22:12.949Z,13.52
2019-04-28T15:24:43.410Z,13.50
2019-04-28T15:27:13.500Z,13.43
2019-04-28T15:29:43.693Z,13.51
2019-04-28T15:32:13.953Z,13.47
2019-04-28T15:34:44.102Z,13.43
2019-04-28T15:37:15.575Z,13.38
2019-04-28T15:39:45.469Z,13.38
2019-04-28T15:42:15.325Z,13.49
2019-04-28T15:44:45.822Z,13.52
2019-04-28T15:47:15.696Z,13.56
2019-04-28T15:49:45.853Z,13.62
2019-04-28T15:52:15.726Z,13.71
2019-04-28T15:54:45.506Z,13.67
2019-04-28T15:57:15.908Z,13.70
2019-04-28T15:59:45.920Z,13.82
2019-04-28T16:02:16.251Z,13.86
2019-04-28T16:04:46.601Z,13.85
2019-04-28T16:07:26.403Z,13.82
2019-04-28T16:09:56.866Z,13.80
2019-04-28T16:12:26.816Z,13.82
2019-04-28T16:14:56.736Z,13.83
2019-04-28T16:17:27.226Z,13.94
2019-04-28T16:19:57.081Z,14.09
2019-04-28T16:22:27.030Z,14.26
2019-04-28T16:24:57.388Z,14.42
2019-04-28T16:27:46.383Z,14.46
2019-04-28T16:30:16.699Z,14.51
2019-04-28T16:32:46.731Z,14.36
2019-04-28T16:35:17.356Z,14.33
2019-04-28T16:37:47.315Z,14.39
2019-04-28T16:40:17.501Z,14.49
2019-04-28T16:42:51.460Z,14.53
2019-04-28T16:45:21.305Z,14.57
2019-04-28T16:47:51.228Z,14.48
2019-04-28T16:50:24.799Z,14.25
2019-04-28T16:52:57.829Z,13.93
2019-04-28T16:55:36.657Z,13.88
2019-04-28T16:58:25.641Z,13.90
2019-04-28T17:01:18.377Z,14.03
2019-04-28T17:04:01.207Z,14.33
2019-04-28T17:06:34.883Z,14.34
2019-04-28T17:47:41.505Z,12.78
2019-04-28T17:50:13.666Z,12.86
2019-04-28T17:52:45.440Z,12.82
2019-04-28T17:55:16.001Z,12.80
2019-04-28T17:57:45.950Z,12.72
2019-04-28T18:00:29.269Z,12.65
2019-04-28T18:03:37.515Z,12.65
2019-04-28T18:09:19.438Z,12.50
2019-04-28T18:11:53.661Z,12.45
2019-04-28T18:14:29.715Z,12.40
2019-04-28T18:17:17.456Z,12.10
2019-04-28T18:19:47.224Z,12.34
2019-04-28T18:22:17.110Z,12.34
2019-04-28T18:24:47.643Z,12.28
2019-04-28T18:27:17.753Z,12.26
2019-04-28T18:29:48.155Z,12.23
2019-04-28T18:35:34.192Z,12.19
2019-04-28T18:38:10.926Z,12.14
2019-04-28T18:41:02.636Z,11.86
2019-04-28T18:43:51.604Z,12.00
2019-04-28T18:46:26.113Z,11.95
2019-04-28T18:48:55.326Z,11.90
2019-04-28T18:51:25.469Z,11.82
2019-04-28T18:53:55.693Z,11.78
2019-04-28T18:56:25.515Z,11.66
2019-04-28T18:58:55.544Z,11.64
2019-04-28T19:01:45.441Z,11.61
2019-04-28T19:04:15.691Z,11.61
2019-04-28T19:06:45.750Z,11.60
2019-04-28T19:09:24.129Z,11.58
2019-04-28T19:12:08.990Z,11.55
2019-04-28T19:14:42.232Z,11.53
2019-04-28T19:17:19.900Z,11.49
2019-04-28T19:19:50.170Z,11.51
2019-04-28T19:22:20.143Z,11.49
2019-04-28T19:24:50.016Z,11.48
2019-04-28T19:27:19.826Z,11.45
2019-04-28T19:29:50.634Z,11.40
2019-04-28T19:32:20.509Z,11.36
2019-04-28T19:34:50.392Z,11.28
2019-04-28T19:37:20.154Z,11.29
2019-04-28T19:39:50.056Z,11.30
2019-04-28T19:42:20.045Z,11.27
2019-04-28T19:44:49.908Z,11.25
2019-04-28T19:47:20.070Z,11.22
2019-04-28T19:49:50.312Z,11.19
2019-04-28T19:52:20.416Z,11.16
2019-04-28T19:55:17.359Z,11.12
2019-04-28T19:58:04.944Z,11.08
2019-04-28T20:00:46.188Z,11.08
2019-04-28T20:03:18.066Z,11.03
2019-04-28T20:05:48.161Z,10.95
2019-04-28T20:08:18.035Z,10.95
2019-04-28T20:10:47.906Z,10.95
2019-04-28T20:13:17.842Z,10.94
2019-04-28T20:15:47.683Z,10.95
2019-04-28T20:18:17.582Z,10.94
2019-04-28T20:20:48.293Z,10.91
2019-04-28T20:23:22.951Z,10.88
2019-04-28T20:25:54.575Z,10.85
2019-04-28T20:28:24.551Z,10.83
2019-04-28T20:30:54.449Z,10.81
2019-04-28T20:33:24.361Z,10.79
2019-04-28T20:35:59.470Z,10.77
2019-04-28T20:38:33.665Z,10.74
2019-04-28T20:41:15.481Z,10.70
2019-04-28T20:43:47.535Z,10.67
2019-04-28T20:46:17.413Z,10.65
2019-04-28T20:48:47.860Z,10.64
2019-04-28T20:55:03.443Z,10.61
2019-04-28T20:57:33.542Z,10.57
2019-04-28T21:00:03.441Z,10.55
2019-04-28T21:02:35.159Z,10.55
2019-04-28T21:05:05.240Z,10.57
2019-04-28T21:07:41.096Z,10.59
2019-04-28T21:10:22.687Z,10.56
2019-04-28T21:13:00.357Z,10.54
2019-04-28T21:15:30.464Z,10.54
2019-04-28T21:18:00.394Z,10.51
2019-04-28T21:20:36.293Z,10.45
2019-04-28T21:23:05.264Z,10.37
2019-04-28T21:29:02.846Z,10.21
2019-04-28T21:31:33.198Z,10.01
2019-04-28T21:34:03.474Z,10.25
2019-04-28T21:36:34.353Z,10.27
2019-04-28T21:39:08.481Z,10.25
2019-04-28T21:41:40.513Z,10.24
2019-04-28T21:44:19.101Z,10.23
2019-04-28T21:46:53.217Z,10.21
2019-04-28T21:49:25.615Z,10.18
2019-04-28T21:51:55.567Z,10.11
2019-04-28T21:54:25.696Z,10.11
2019-04-28T21:56:55.612Z,10.09
2019-04-28T21:59:25.392Z,10.07
2019-04-28T22:01:55.610Z,10.03
2019-04-28T22:04:25.594Z,10.00
2019-04-28T22:06:55.477Z,9.97
2019-04-28T22:09:26.321Z,9.93
2019-04-28T22:11:56.298Z,9.91
2019-04-28T22:14:26.458Z,9.91
2019-04-28T22:16:56.486Z,9.93
2019-04-28T22:19:26.438Z,9.94
2019-04-28T22:21:56.200Z,9.89
2019-04-28T22:24:32.025Z,9.88
2019-04-28T22:27:01.964Z,9.85
2019-04-28T22:29:32.114Z,9.83
2019-04-28T22:32:02.016Z,9.81
2019-04-28T22:34:32.198Z,9.79
2019-04-28T22:37:02.541Z,9.79
2019-04-28T22:39:32.715Z,9.75
2019-04-28T22:42:02.694Z,9.72
2019-04-28T22:44:32.522Z,9.69
2019-04-28T22:47:02.283Z,9.69
2019-04-28T22:49:32.280Z,9.68
2019-04-28T22:52:02.353Z,9.64
2019-04-28T22:55:00.426Z,9.59
2019-04-28T22:57:53.623Z,9.56
2019-04-28T23:00:42.039Z,9.57
2019-04-28T23:03:17.116Z,9.54
2019-04-28T23:05:47.050Z,9.56
2019-04-28T23:08:16.868Z,9.51
2019-04-28T23:10:47.028Z,9.50
2019-04-28T23:13:16.903Z,9.48
2019-04-28T23:15:46.823Z,9.43
2019-04-28T23:18:17.123Z,9.40
2019-04-28T23:20:48.846Z,9.37
2019-04-28T23:23:18.816Z,9.36
2019-04-28T23:25:48.580Z,9.33
2019-04-28T23:28:19.435Z,9.33
2019-04-28T23:30:49.822Z,9.35
2019-04-28T23:33:19.955Z,9.37
2019-04-28T23:35:49.815Z,9.32
2019-04-28T23:38:19.596Z,9.29
2019-04-28T23:40:59.265Z,9.27
2019-04-28T23:43:29.068Z,9.22
2019-04-28T23:45:58.868Z,9.18
2019-04-28T23:48:28.793Z,9.20
2019-04-28T23:51:17.750Z,9.20
2019-04-28T23:53:59.541Z,9.14
2019-04-28T23:56:29.555Z,9.07
2019-04-28T23:58:59.423Z,9.01
